Darstellungsparameter: Aktuell verwendete Einstellungen:
Skalierung der Graphiken ... ?
xyx+y,   Skalierungsfaktor:      Skalierung: Modus: x, Faktor: 1
Darstellungszeitraum ... ?
Vom - - bis: - -   Zeitraum: 18.06.2015 - 18.06.2015
Min/Max/Avg-Anzeige ... ?
Zeige MMA aktuell
Zeige MMA Monat
Zeige MMA alles
Zeige --A aktuell
Zeige --A Monat
Zeige --A alles
Keine MMA-Anzeige
MMA:
Keine MMA-Graphiken
MMA-Basis: 18.06.2015 - 18.06.2015
Quicknavigation für Darstellung... ?
Tage:      1T, 2T, 3T, 5T -1T -2T -3T -5T +1T +2T +3T +5T
Wochen: 1W, 2W, 3W -1W -2W -3W +1W +2W +3W
Monate: 1M, 3M, 6M -1M -3M -6M +1M +3M +6M
Jahre:    1J, 3J, 5J, 10J -1J -3J -5J -10J +1J +3J +5J +10J
Nutze für die Darstellung ... ?
Originaldaten oder Mittelwerte auf ...
Stundenbasis Tagesbasis Wochenbasis
Monatsbasis Jahresbasis      Datenbasis: Original-Daten
Darstellen als:
Statistik (Auto) Statistik J:M      Darstellung:
Zur Graphik,    zurück zur Übersicht aller Sensoren.
 
Tabellarische Datenbersicht: ?
 
Sensor: Nr:Datum:Temp:Feuchte:Taupunkt:
Aussen-T/F 1 18-06-2015 00:00:00 16.6 C 69 % 10.89 C
2 18-06-2015 00:05:00 16.6 C 69 % 10.89 C
3 18-06-2015 00:10:00 16.7 C 69 % 10.99 C
4 18-06-2015 00:15:00 16.7 C 69 % 10.99 C
5 18-06-2015 00:20:00 16.6 C 70 % 11.11 C
6 18-06-2015 00:25:00 16.6 C 70 % 11.11 C
7 18-06-2015 00:30:00 16.6 C 69 % 10.89 C
8 18-06-2015 00:35:00 16.6 C 70 % 11.11 C
9 18-06-2015 00:40:00 16.4 C 71 % 11.13 C
10 18-06-2015 00:45:00 16.3 C 71 % 11.04 C
11 18-06-2015 00:50:00 16.3 C 71 % 11.04 C
12 18-06-2015 00:55:00 16.2 C 72 % 11.15 C
13 18-06-2015 01:00:00 16.2 C 72 % 11.15 C
14 18-06-2015 01:05:00 16.2 C 72 % 11.15 C
15 18-06-2015 01:10:00 16.2 C 72 % 11.15 C
16 18-06-2015 01:15:00 16.1 C 72 % 11.06 C
17 18-06-2015 01:20:00 16.1 C 73 % 11.26 C
18 18-06-2015 01:25:00 16.2 C 73 % 11.36 C
19 18-06-2015 01:30:00 16.2 C 74 % 11.56 C
20 18-06-2015 01:35:00 16.2 C 74 % 11.56 C
21 18-06-2015 01:40:00 16.2 C 73 % 11.36 C
22 18-06-2015 01:45:00 16.2 C 72 % 11.15 C
23 18-06-2015 01:50:00 16.3 C 72 % 11.25 C
24 18-06-2015 01:55:00 16.4 C 73 % 11.55 C
25 18-06-2015 02:00:00 16.4 C 71 % 11.13 C
Sensor: Nr:Datum:Temp:Feuchte:Taupunkt:
Aussen-T/F 26 18-06-2015 02:05:00 16.5 C 71 % 11.23 C
27 18-06-2015 02:10:00 16.6 C 71 % 11.32 C
28 18-06-2015 02:15:00 16.7 C 71 % 11.42 C
29 18-06-2015 02:20:00 16.6 C 71 % 11.32 C
30 18-06-2015 02:25:00 16.6 C 73 % 11.74 C
31 18-06-2015 02:30:00 16.6 C 74 % 11.95 C
32 18-06-2015 02:35:00 16.5 C 73 % 11.65 C
33 18-06-2015 02:40:00 16.4 C 74 % 11.76 C
34 18-06-2015 02:45:00 16.4 C 75 % 11.96 C
35 18-06-2015 02:50:00 16.3 C 74 % 11.66 C
36 18-06-2015 02:55:00 16.3 C 76 % 12.07 C
37 18-06-2015 03:00:00 16.3 C 76 % 12.07 C
38 18-06-2015 03:05:00 16.2 C 77 % 12.17 C
39 18-06-2015 03:10:00 16.2 C 77 % 12.17 C
40 18-06-2015 03:15:00 16.1 C 78 % 12.27 C
41 18-06-2015 03:20:00 16.1 C 79 % 12.46 C
42 18-06-2015 03:25:00 16.1 C 80 % 12.65 C
43 18-06-2015 03:30:00 16.1 C 81 % 12.84 C
44 18-06-2015 03:35:00 16.1 C 80 % 12.65 C
45 18-06-2015 03:40:00 16.2 C 80 % 12.75 C
46 18-06-2015 03:45:00 16.3 C 79 % 12.65 C
47 18-06-2015 03:50:00 16.4 C 79 % 12.75 C
48 18-06-2015 03:55:00 16.6 C 78 % 12.75 C
49 18-06-2015 04:00:00 16.7 C 77 % 12.65 C
50 18-06-2015 04:05:00 16.9 C 76 % 12.65 C
Sensor: Nr:Datum:Temp:Feuchte:Taupunkt:
Aussen-T/F 51 18-06-2015 04:10:00 17.1 C 75 % 12.64 C
52 18-06-2015 04:15:00 17.3 C 74 % 12.62 C
53 18-06-2015 04:20:00 17.3 C 74 % 12.62 C
54 18-06-2015 04:25:00 17.4 C 74 % 12.72 C
55 18-06-2015 04:30:00 17.3 C 75 % 12.83 C
56 18-06-2015 04:35:00 17.3 C 75 % 12.83 C
57 18-06-2015 04:40:00 17.3 C 76 % 13.03 C
58 18-06-2015 04:45:00 17.3 C 75 % 12.83 C
59 18-06-2015 04:50:00 17.2 C 76 % 12.94 C
60 18-06-2015 04:55:00 17.3 C 78 % 13.43 C
61 18-06-2015 05:00:00 17.2 C 79 % 13.53 C
62 18-06-2015 05:05:00 16.9 C 81 % 13.62 C
63 18-06-2015 05:10:00 16.7 C 83 % 13.8 C
64 18-06-2015 05:15:00 16.4 C 85 % 13.87 C
65 18-06-2015 05:20:00 16.2 C 88 % 14.21 C
66 18-06-2015 05:25:00 15.9 C 89 % 14.09 C
67 18-06-2015 05:30:00 15.7 C 90 % 14.06 C
68 18-06-2015 05:35:00 15.6 C 91 % 14.14 C
69 18-06-2015 05:40:00 15.5 C 92 % 14.21 C
70 18-06-2015 05:45:00 15.4 C 92 % 14.11 C
71 18-06-2015 05:50:00 15.4 C 92 % 14.11 C
72 18-06-2015 05:55:00 15.3 C 93 % 14.18 C
73 18-06-2015 06:00:00 15.3 C 93 % 14.18 C
74 18-06-2015 06:05:00 15.3 C 93 % 14.18 C
75 18-06-2015 06:10:00 15.2 C 93 % 14.08 C
Sensor: Nr:Datum:Temp:Feuchte:Taupunkt:
Aussen-T/F 76 18-06-2015 06:15:00 15.2 C 93 % 14.08 C
77 18-06-2015 06:20:00 15.2 C 94 % 14.24 C
78 18-06-2015 06:25:00 15.2 C 94 % 14.24 C
79 18-06-2015 06:30:00 15.2 C 94 % 14.24 C
80 18-06-2015 06:35:00 15.2 C 94 % 14.24 C
81 18-06-2015 06:40:00 15.3 C 94 % 14.34 C
82 18-06-2015 06:45:00 15.3 C 94 % 14.34 C
83 18-06-2015 06:50:00 15.3 C 94 % 14.34 C
84 18-06-2015 06:55:00 15.4 C 94 % 14.44 C
85 18-06-2015 07:00:00 15.5 C 94 % 14.54 C
86 18-06-2015 07:05:00 15.5 C 94 % 14.54 C
87 18-06-2015 07:10:00 15.6 C 94 % 14.64 C
88 18-06-2015 07:15:00 15.6 C 94 % 14.64 C
89 18-06-2015 07:20:00 15.6 C 94 % 14.64 C
90 18-06-2015 07:25:00 15.6 C 95 % 14.8 C
91 18-06-2015 07:30:00 15.6 C 94 % 14.64 C
92 18-06-2015 07:35:00 15.6 C 94 % 14.64 C
93 18-06-2015 07:40:00 15.6 C 94 % 14.64 C
94 18-06-2015 07:45:00 15.6 C 94 % 14.64 C
95 18-06-2015 07:50:00 15.6 C 94 % 14.64 C
96 18-06-2015 07:55:00 15.6 C 95 % 14.8 C
97 18-06-2015 08:00:00 15.6 C 95 % 14.8 C
98 18-06-2015 08:05:00 15.7 C 95 % 14.9 C
99 18-06-2015 08:10:00 15.7 C 95 % 14.9 C
100 18-06-2015 08:15:00 15.7 C 95 % 14.9 C
Sensor: Nr:Datum:Temp:Feuchte:Taupunkt:
Aussen-T/F 101 18-06-2015 08:20:00 15.7 C 95 % 14.9 C
102 18-06-2015 08:25:00 15.7 C 95 % 14.9 C
103 18-06-2015 08:30:00 15.8 C 95 % 15 C
104 18-06-2015 08:35:00 15.8 C 95 % 15 C
105 18-06-2015 08:40:00 15.9 C 95 % 15.1 C
106 18-06-2015 08:45:00 15.9 C 95 % 15.1 C
107 18-06-2015 08:50:00 15.9 C 95 % 15.1 C
108 18-06-2015 08:55:00 16 C 95 % 15.2 C
109 18-06-2015 09:00:00 16.1 C 95 % 15.3 C
110 18-06-2015 09:05:00 16.2 C 95 % 15.4 C
111 18-06-2015 09:10:00 16.2 C 95 % 15.4 C
112 18-06-2015 09:15:00 16.3 C 95 % 15.5 C
113 18-06-2015 09:20:00 16.4 C 95 % 15.6 C
114 18-06-2015 09:25:00 16.3 C 95 % 15.5 C
115 18-06-2015 09:30:00 16.3 C 95 % 15.5 C
116 18-06-2015 09:35:00 16.3 C 95 % 15.5 C
117 18-06-2015 09:40:00 16.3 C 95 % 15.5 C
118 18-06-2015 09:45:00 16.3 C 94 % 15.33 C
119 18-06-2015 09:50:00 16.3 C 94 % 15.33 C
120 18-06-2015 09:55:00 16.2 C 93 % 15.07 C
121 18-06-2015 10:00:00 16.3 C 93 % 15.17 C
122 18-06-2015 10:05:00 16.3 C 93 % 15.17 C
123 18-06-2015 10:10:00 16.3 C 93 % 15.17 C
124 18-06-2015 10:15:00 16.3 C 91 % 14.83 C
125 18-06-2015 10:20:00 16.3 C 92 % 15 C
Sensor: Nr:Datum:Temp:Feuchte:Taupunkt:
Aussen-T/F 126 18-06-2015 10:25:00 16.3 C 92 % 15 C
127 18-06-2015 10:30:00 16.2 C 91 % 14.73 C
128 18-06-2015 10:35:00 16.2 C 92 % 14.9 C
129 18-06-2015 10:40:00 16.2 C 91 % 14.73 C
130 18-06-2015 10:45:00 16.2 C 92 % 14.9 C
131 18-06-2015 10:50:00 16.2 C 92 % 14.9 C
132 18-06-2015 10:55:00 16.1 C 92 % 14.8 C
133 18-06-2015 11:00:00 15.9 C 92 % 14.6 C
134 18-06-2015 11:05:00 15.7 C 91 % 14.24 C
135 18-06-2015 11:10:00 15.6 C 91 % 14.14 C
136 18-06-2015 11:15:00 15.5 C 91 % 14.04 C
137 18-06-2015 11:20:00 15.6 C 92 % 14.31 C
138 18-06-2015 11:25:00 15.6 C 93 % 14.47 C
139 18-06-2015 11:30:00 15.7 C 93 % 14.57 C
140 18-06-2015 11:35:00 15.7 C 93 % 14.57 C
141 18-06-2015 11:40:00 15.7 C 92 % 14.4 C
142 18-06-2015 11:45:00 15.8 C 93 % 14.67 C
143 18-06-2015 11:50:00 16.1 C 94 % 15.13 C
144 18-06-2015 11:55:00 16.3 C 94 % 15.33 C
145 18-06-2015 12:00:00 16.4 C 93 % 15.27 C
146 18-06-2015 12:05:00 16.4 C 92 % 15.1 C
147 18-06-2015 12:10:00 16.6 C 92 % 15.3 C
148 18-06-2015 12:15:00 16.8 C 92 % 15.49 C
149 18-06-2015 12:20:00 16.8 C 92 % 15.49 C
150 18-06-2015 12:25:00 16.8 C 92 % 15.49 C
Sensor: Nr:Datum:Temp:Feuchte:Taupunkt:
Aussen-T/F 151 18-06-2015 12:30:00 16.7 C 92 % 15.39 C
152 18-06-2015 12:35:00 16.7 C 92 % 15.39 C
153 18-06-2015 12:40:00 16.6 C 92 % 15.3 C
154 18-06-2015 12:45:00 16.5 C 90 % 14.85 C
155 18-06-2015 12:50:00 16.7 C 91 % 15.22 C
156 18-06-2015 12:55:00 16.9 C 89 % 15.08 C
157 18-06-2015 13:00:00 17.2 C 89 % 15.37 C
158 18-06-2015 13:05:00 17.5 C 87 % 15.31 C
159 18-06-2015 13:10:00 17.8 C 83 % 14.88 C
160 18-06-2015 13:15:00 18.1 C 79 % 14.4 C
161 18-06-2015 13:20:00 18.2 C 79 % 14.5 C
162 18-06-2015 13:25:00 18.2 C 77 % 14.1 C
163 18-06-2015 13:30:00 18.3 C 77 % 14.2 C
164 18-06-2015 13:35:00 18.6 C 77 % 14.49 C
165 18-06-2015 13:40:00 19.1 C 76 % 14.77 C
166 18-06-2015 13:45:00 19.4 C 71 % 14.01 C
167 18-06-2015 13:50:00 19.6 C 70 % 13.98 C
168 18-06-2015 13:55:00 19.6 C 69 % 13.76 C
169 18-06-2015 14:00:00 19.6 C 69 % 13.76 C
170 18-06-2015 14:05:00 19.9 C 67 % 13.59 C
171 18-06-2015 14:10:00 19.9 C 65 % 13.13 C
172 18-06-2015 14:15:00 20.1 C 68 % 14.01 C
173 18-06-2015 14:20:00 20.3 C 64 % 13.27 C
174 18-06-2015 14:25:00 20.2 C 63 % 12.94 C
175 18-06-2015 14:30:00 20.2 C 65 % 13.41 C
Sensor: Nr:Datum:Temp:Feuchte:Taupunkt:
Aussen-T/F 176 18-06-2015 14:35:00 20.2 C 63 % 12.94 C
177 18-06-2015 14:40:00 20.3 C 66 % 13.74 C
178 18-06-2015 14:45:00 20.3 C 63 % 13.03 C
179 18-06-2015 14:50:00 20.4 C 66 % 13.84 C
180 18-06-2015 14:55:00 20.5 C 62 % 12.97 C
181 18-06-2015 15:00:00 20.2 C 65 % 13.41 C
182 18-06-2015 15:05:00 20.2 C 67 % 13.88 C
183 18-06-2015 15:10:00 20.6 C 62 % 13.07 C
184 18-06-2015 15:15:00 20.8 C 63 % 13.5 C
185 18-06-2015 15:20:00 20.9 C 66 % 14.31 C
186 18-06-2015 15:25:00 21.1 C 63 % 13.79 C
187 18-06-2015 15:30:00 21.1 C 60 % 13.04 C
188 18-06-2015 15:35:00 21.2 C 63 % 13.88 C
189 18-06-2015 15:40:00 21.7 C 60 % 13.6 C
190 18-06-2015 15:45:00 22.1 C 63 % 14.73 C
191 18-06-2015 15:50:00 22.1 C 58 % 13.45 C
192 18-06-2015 15:55:00 21.7 C 58 % 13.08 C
193 18-06-2015 16:00:00 21.5 C 63 % 14.16 C
194 18-06-2015 16:05:00 21.3 C 62 % 13.73 C
195 18-06-2015 16:10:00 21.4 C 61 % 13.57 C
196 18-06-2015 16:15:00 21.3 C 62 % 13.73 C
197 18-06-2015 16:20:00 21.2 C 61 % 13.38 C
198 18-06-2015 16:25:00 20.8 C 58 % 12.24 C
199 18-06-2015 16:30:00 20.6 C 58 % 12.05 C
200 18-06-2015 16:35:00 20.4 C 59 % 12.12 C
Sensor: Nr:Datum:Temp:Feuchte:Taupunkt:
Aussen-T/F 201 18-06-2015 16:40:00 20.3 C 59 % 12.03 C
202 18-06-2015 16:45:00 20.7 C 58 % 12.15 C
203 18-06-2015 16:50:00 21.1 C 56 % 11.99 C
204 18-06-2015 16:55:00 21 C 55 % 11.62 C
205 18-06-2015 17:00:00 21.1 C 57 % 12.25 C
206 18-06-2015 17:05:00 21.4 C 54 % 11.71 C
207 18-06-2015 17:10:00 21.3 C 53 % 11.34 C
208 18-06-2015 17:15:00 21.3 C 54 % 11.62 C
209 18-06-2015 17:20:00 21.1 C 55 % 11.71 C
210 18-06-2015 17:25:00 20.8 C 56 % 11.71 C
211 18-06-2015 17:30:00 20.9 C 56 % 11.8 C
212 18-06-2015 17:35:00 21.1 C 55 % 11.71 C
213 18-06-2015 17:40:00 21.1 C 54 % 11.44 C
214 18-06-2015 17:45:00 20.9 C 54 % 11.25 C
215 18-06-2015 17:50:00 21 C 54 % 11.34 C
216 18-06-2015 17:55:00 20.7 C 53 % 10.78 C
217 18-06-2015 18:00:00 20.6 C 54 % 10.97 C
218 18-06-2015 18:05:00 20.8 C 55 % 11.43 C
219 18-06-2015 18:10:00 20.9 C 52 % 10.68 C
220 18-06-2015 18:15:00 20.6 C 53 % 10.69 C
221 18-06-2015 18:20:00 20.6 C 55 % 11.25 C
222 18-06-2015 18:25:00 20.6 C 55 % 11.25 C
223 18-06-2015 18:30:00 20.7 C 54 % 11.07 C
224 18-06-2015 18:35:00 20.7 C 52 % 10.5 C
225 18-06-2015 18:40:00 20.4 C 55 % 11.06 C
Sensor: Nr:Datum:Temp:Feuchte:Taupunkt:
Aussen-T/F 226 18-06-2015 18:45:00 20.3 C 53 % 10.41 C
227 18-06-2015 18:50:00 19.9 C 54 % 10.32 C
228 18-06-2015 18:55:00 19.7 C 56 % 10.68 C
229 18-06-2015 19:00:00 19.4 C 55 % 10.13 C
230 18-06-2015 19:05:00 19.3 C 56 % 10.31 C
231 18-06-2015 19:10:00 19.2 C 58 % 10.74 C
232 18-06-2015 19:15:00 19.1 C 57 % 10.39 C
233 18-06-2015 19:20:00 18.9 C 56 % 9.94 C
234 18-06-2015 19:25:00 18.8 C 57 % 10.11 C
235 18-06-2015 19:30:00 18.7 C 58 % 10.28 C
236 18-06-2015 19:35:00 18.6 C 59 % 10.44 C
237 18-06-2015 19:40:00 18.4 C 59 % 10.25 C
238 18-06-2015 19:45:00 18.3 C 59 % 10.16 C
239 18-06-2015 19:50:00 18.2 C 59 % 10.06 C
240 18-06-2015 19:55:00 18.1 C 59 % 9.97 C
241 18-06-2015 20:00:00 17.9 C 59 % 9.78 C
242 18-06-2015 20:05:00 17.8 C 59 % 9.69 C
243 18-06-2015 20:10:00 17.7 C 59 % 9.59 C
244 18-06-2015 20:15:00 17.7 C 60 % 9.84 C
245 18-06-2015 20:20:00 17.4 C 60 % 9.56 C
246 18-06-2015 20:25:00 17.3 C 61 % 9.71 C
247 18-06-2015 20:30:00 17.1 C 61 % 9.53 C
248 18-06-2015 20:35:00 16.9 C 62 % 9.58 C
249 18-06-2015 20:40:00 16.8 C 61 % 9.24 C
250 18-06-2015 20:45:00 16.7 C 61 % 9.15 C
Sensor: Nr:Datum:Temp:Feuchte:Taupunkt:
Aussen-T/F 251 18-06-2015 20:50:00 16.5 C 61 % 8.96 C
252 18-06-2015 20:55:00 16.4 C 62 % 9.11 C
253 18-06-2015 21:00:00 16.3 C 62 % 9.01 C
254 18-06-2015 21:05:00 16.2 C 62 % 8.92 C
255 18-06-2015 21:10:00 16.1 C 62 % 8.82 C
256 18-06-2015 21:15:00 15.9 C 62 % 8.64 C
257 18-06-2015 21:20:00 15.8 C 62 % 8.54 C
258 18-06-2015 21:25:00 15.7 C 63 % 8.68 C
259 18-06-2015 21:30:00 15.7 C 63 % 8.68 C
260 18-06-2015 21:35:00 15.5 C 63 % 8.49 C
261 18-06-2015 21:40:00 15.4 C 63 % 8.4 C
262 18-06-2015 21:45:00 15.3 C 63 % 8.31 C
263 18-06-2015 21:50:00 15.2 C 63 % 8.21 C
264 18-06-2015 21:55:00 15.1 C 64 % 8.35 C
265 18-06-2015 22:00:00 15 C 64 % 8.25 C
266 18-06-2015 22:05:00 14.9 C 65 % 8.39 C
267 18-06-2015 22:10:00 14.8 C 65 % 8.29 C
268 18-06-2015 22:15:00 14.7 C 65 % 8.2 C
269 18-06-2015 22:20:00 14.6 C 65 % 8.1 C
270 18-06-2015 22:25:00 14.6 C 66 % 8.33 C
271 18-06-2015 22:30:00 14.4 C 66 % 8.14 C
272 18-06-2015 22:35:00 14.3 C 67 % 8.26 C
273 18-06-2015 22:40:00 14.2 C 68 % 8.39 C
274 18-06-2015 22:45:00 14.1 C 68 % 8.29 C
275 18-06-2015 22:50:00 13.9 C 69 % 8.31 C
Sensor: Nr:Datum:Temp:Feuchte:Taupunkt:
Aussen-T/F 276 18-06-2015 22:55:00 13.8 C 70 % 8.43 C
277 18-06-2015 23:00:00 13.7 C 72 % 8.75 C
278 18-06-2015 23:05:00 13.5 C 73 % 8.76 C
279 18-06-2015 23:10:00 13.4 C 71 % 8.26 C
280 18-06-2015 23:15:00 13.3 C 72 % 8.36 C
281 18-06-2015 23:20:00 13.3 C 73 % 8.57 C
282 18-06-2015 23:25:00 13.3 C 73 % 8.57 C
283 18-06-2015 23:30:00 13.2 C 72 % 8.27 C
284 18-06-2015 23:35:00 13.1 C 74 % 8.58 C
285 18-06-2015 23:40:00 12.9 C 73 % 8.18 C
286 18-06-2015 23:45:00 12.9 C 73 % 8.18 C
287 18-06-2015 23:50:00 12.9 C 73 % 8.18 C
288 18-06-2015 23:55:00 12.9 C 73 % 8.18 C

Legende:
   Min
   Max


Maximal/Minimal-Werte vom 18.06.2015 - 18.06.2015

Sensor Min Max Avg
Temp
(Aussen-T/F)
12.9 °C
18-06-2015  23:40:00
22.1 °C
18-06-2015  15:45:00
17.16 °C
Feuchte
(Aussen-T/F)
52 %
18-06-2015  18:10:00
95 %
18-06-2015  07:25:00
75.17 %
Taupunkt
(Aussen-T/F)
8.1 C
18-06-2015  22:20:00
15.6 C
18-06-2015  09:20:00
12.41 C

Die Daten stammen von einer Davis Vantage Pro 2 Wetter-Station und werden unter Linux mit der Software wview2wettercgi und aufbereitet. Alle Angaben erfolgen ohne Gewähr für ihre Vollständigkeit oder Richtigkeit.
Kontakt: Rainer Krienke krienke@uni-koblenz.de . Meine Webseiten an der Uni Koblenz oder privat.
Version: $Revision: 0.78 $